sensor_id;sensor_type;location;lat;lon;timestamp;P1;durP1;ratioP1;P2;durP2;ratioP2
5225;SDS011;2632;51.666;7.146;2023-08-17T00:01:32;4.37;;;2.60;;
5225;SDS011;2632;51.666;7.146;2023-08-17T00:03:58;3.23;;;2.60;;
5225;SDS011;2632;51.666;7.146;2023-08-17T00:06:25;10.23;;;3.07;;
5225;SDS011;2632;51.666;7.146;2023-08-17T00:08:52;4.50;;;2.60;;
5225;SDS011;2632;51.666;7.146;2023-08-17T00:11:19;5.13;;;2.80;;
5225;SDS011;2632;51.666;7.146;2023-08-17T00:13:45;4.30;;;2.97;;
5225;SDS011;2632;51.666;7.146;2023-08-17T00:16:12;11.50;;;4.33;;
5225;SDS011;2632;51.666;7.146;2023-08-17T00:18:39;4.20;;;3.50;;
5225;SDS011;2632;51.666;7.146;2023-08-17T00:21:06;5.53;;;3.10;;
5225;SDS011;2632;51.666;7.146;2023-08-17T00:23:32;6.57;;;3.13;;
5225;SDS011;2632;51.666;7.146;2023-08-17T00:25:59;10.23;;;3.67;;
5225;SDS011;2632;51.666;7.146;2023-08-17T00:28:26;6.73;;;3.60;;
5225;SDS011;2632;51.666;7.146;2023-08-17T00:30:53;5.90;;;4.10;;
5225;SDS011;2632;51.666;7.146;2023-08-17T00:33:19;6.20;;;3.77;;
5225;SDS011;2632;51.666;7.146;2023-08-17T00:35:46;7.33;;;3.83;;
5225;SDS011;2632;51.666;7.146;2023-08-17T00:38:13;5.80;;;3.90;;
5225;SDS011;2632;51.666;7.146;2023-08-17T00:40:39;13.83;;;4.40;;
5225;SDS011;2632;51.666;7.146;2023-08-17T00:43:06;9.30;;;4.27;;
5225;SDS011;2632;51.666;7.146;2023-08-17T00:45:33;9.90;;;4.67;;
5225;SDS011;2632;51.666;7.146;2023-08-17T00:48:01;11.43;;;5.57;;
5225;SDS011;2632;51.666;7.146;2023-08-17T00:50:31;7.10;;;4.00;;
5225;SDS011;2632;51.666;7.146;2023-08-17T00:52:58;8.33;;;4.03;;
5225;SDS011;2632;51.666;7.146;2023-08-17T00:55:25;6.80;;;4.60;;
5225;SDS011;2632;51.666;7.146;2023-08-17T00:57:52;10.30;;;5.10;;
5225;SDS011;2632;51.666;7.146;2023-08-17T01:00:20;7.60;;;4.00;;
5225;SDS011;2632;51.666;7.146;2023-08-17T01:02:46;10.60;;;4.37;;
5225;SDS011;2632;51.666;7.146;2023-08-17T01:05:13;8.83;;;4.17;;
5225;SDS011;2632;51.666;7.146;2023-08-17T01:07:40;5.73;;;3.70;;
5225;SDS011;2632;51.666;7.146;2023-08-17T01:10:07;5.27;;;4.23;;
5225;SDS011;2632;51.666;7.146;2023-08-17T01:12:56;8.23;;;4.90;;
5225;SDS011;2632;51.666;7.146;2023-08-17T01:15:39;9.00;;;4.90;;
5225;SDS011;2632;51.666;7.146;2023-08-17T01:18:26;8.03;;;4.53;;
5225;SDS011;2632;51.666;7.146;2023-08-17T01:20:58;8.13;;;4.13;;
5225;SDS011;2632;51.666;7.146;2023-08-17T01:23:26;7.23;;;4.40;;
5225;SDS011;2632;51.666;7.146;2023-08-17T01:25:52;11.57;;;4.40;;
5225;SDS011;2632;51.666;7.146;2023-08-17T01:28:20;8.43;;;4.50;;
5225;SDS011;2632;51.666;7.146;2023-08-17T01:33:29;8.13;;;4.20;;
5225;SDS011;2632;51.666;7.146;2023-08-17T01:36:05;8.57;;;4.40;;
5225;SDS011;2632;51.666;7.146;2023-08-17T01:38:37;12.90;;;4.33;;
5225;SDS011;2632;51.666;7.146;2023-08-17T01:41:06;8.93;;;4.50;;
5225;SDS011;2632;51.666;7.146;2023-08-17T01:43:41;6.73;;;4.30;;
5225;SDS011;2632;51.666;7.146;2023-08-17T01:46:13;8.13;;;4.23;;
5225;SDS011;2632;51.666;7.146;2023-08-17T01:48:41;5.40;;;3.80;;
5225;SDS011;2632;51.666;7.146;2023-08-17T01:51:09;7.20;;;3.90;;
5225;SDS011;2632;51.666;7.146;2023-08-17T01:53:36;15.33;;;4.50;;
5225;SDS011;2632;51.666;7.146;2023-08-17T01:56:03;5.00;;;3.63;;
5225;SDS011;2632;51.666;7.146;2023-08-17T01:58:30;9.10;;;4.10;;
5225;SDS011;2632;51.666;7.146;2023-08-17T02:00:57;6.73;;;4.10;;
5225;SDS011;2632;51.666;7.146;2023-08-17T02:03:23;7.10;;;4.60;;
5225;SDS011;2632;51.666;7.146;2023-08-17T02:05:50;10.60;;;4.33;;
5225;SDS011;2632;51.666;7.146;2023-08-17T02:08:17;7.93;;;4.00;;
5225;SDS011;2632;51.666;7.146;2023-08-17T02:10:43;5.53;;;4.23;;
5225;SDS011;2632;51.666;7.146;2023-08-17T02:13:10;5.20;;;4.10;;
5225;SDS011;2632;51.666;7.146;2023-08-17T02:15:43;9.50;;;4.13;;
5225;SDS011;2632;51.666;7.146;2023-08-17T02:18:11;7.67;;;4.50;;
5225;SDS011;2632;51.666;7.146;2023-08-17T02:20:37;6.93;;;4.20;;
5225;SDS011;2632;51.666;7.146;2023-08-17T02:23:04;10.73;;;4.70;;
5225;SDS011;2632;51.666;7.146;2023-08-17T02:25:31;13.20;;;4.33;;
5225;SDS011;2632;51.666;7.146;2023-08-17T02:28:02;9.77;;;4.47;;
5225;SDS011;2632;51.666;7.146;2023-08-17T02:30:29;5.30;;;4.33;;
5225;SDS011;2632;51.666;7.146;2023-08-17T02:32:56;8.60;;;4.50;;
5225;SDS011;2632;51.666;7.146;2023-08-17T02:35:23;8.77;;;4.60;;
5225;SDS011;2632;51.666;7.146;2023-08-17T02:37:53;10.10;;;3.90;;
5225;SDS011;2632;51.666;7.146;2023-08-17T02:40:20;4.50;;;4.10;;
5225;SDS011;2632;51.666;7.146;2023-08-17T02:42:47;6.33;;;4.50;;
5225;SDS011;2632;51.666;7.146;2023-08-17T02:45:13;7.90;;;4.93;;
5225;SDS011;2632;51.666;7.146;2023-08-17T02:47:40;7.10;;;4.00;;
5225;SDS011;2632;51.666;7.146;2023-08-17T02:50:07;10.50;;;5.07;;
5225;SDS011;2632;51.666;7.146;2023-08-17T02:52:34;6.90;;;4.13;;
5225;SDS011;2632;51.666;7.146;2023-08-17T02:55:01;6.27;;;4.57;;
5225;SDS011;2632;51.666;7.146;2023-08-17T02:57:27;5.60;;;4.53;;
5225;SDS011;2632;51.666;7.146;2023-08-17T02:59:54;10.30;;;4.57;;
5225;SDS011;2632;51.666;7.146;2023-08-17T03:02:21;11.47;;;3.90;;
5225;SDS011;2632;51.666;7.146;2023-08-17T03:04:47;6.87;;;4.33;;
5225;SDS011;2632;51.666;7.146;2023-08-17T03:07:14;10.90;;;4.07;;
5225;SDS011;2632;51.666;7.146;2023-08-17T03:09:41;9.00;;;4.47;;
5225;SDS011;2632;51.666;7.146;2023-08-17T03:12:07;6.87;;;4.20;;
5225;SDS011;2632;51.666;7.146;2023-08-17T03:14:34;9.23;;;4.80;;
5225;SDS011;2632;51.666;7.146;2023-08-17T03:17:01;7.73;;;4.77;;
5225;SDS011;2632;51.666;7.146;2023-08-17T03:19:27;6.50;;;4.77;;
5225;SDS011;2632;51.666;7.146;2023-08-17T03:21:54;10.40;;;5.20;;
5225;SDS011;2632;51.666;7.146;2023-08-17T03:24:21;7.80;;;4.53;;
5225;SDS011;2632;51.666;7.146;2023-08-17T03:26:47;10.30;;;4.70;;
5225;SDS011;2632;51.666;7.146;2023-08-17T03:29:14;8.10;;;4.40;;
5225;SDS011;2632;51.666;7.146;2023-08-17T03:31:41;9.80;;;4.40;;
5225;SDS011;2632;51.666;7.146;2023-08-17T03:34:07;11.30;;;4.77;;
5225;SDS011;2632;51.666;7.146;2023-08-17T03:36:34;7.33;;;4.67;;
5225;SDS011;2632;51.666;7.146;2023-08-17T03:39:00;7.90;;;4.27;;
5225;SDS011;2632;51.666;7.146;2023-08-17T03:41:27;9.57;;;4.40;;
5225;SDS011;2632;51.666;7.146;2023-08-17T03:43:54;10.50;;;5.10;;
5225;SDS011;2632;51.666;7.146;2023-08-17T03:46:20;9.27;;;5.20;;
5225;SDS011;2632;51.666;7.146;2023-08-17T03:48:47;7.33;;;5.07;;
5225;SDS011;2632;51.666;7.146;2023-08-17T03:51:14;9.57;;;5.33;;
5225;SDS011;2632;51.666;7.146;2023-08-17T03:53:40;10.23;;;5.27;;
5225;SDS011;2632;51.666;7.146;2023-08-17T03:56:07;9.50;;;5.10;;
5225;SDS011;2632;51.666;7.146;2023-08-17T03:58:34;10.07;;;5.00;;
5225;SDS011;2632;51.666;7.146;2023-08-17T04:01:01;9.43;;;4.77;;
5225;SDS011;2632;51.666;7.146;2023-08-17T04:03:29;11.07;;;5.00;;
5225;SDS011;2632;51.666;7.146;2023-08-17T04:05:55;7.80;;;5.10;;
5225;SDS011;2632;51.666;7.146;2023-08-17T04:08:22;7.73;;;4.87;;
5225;SDS011;2632;51.666;7.146;2023-08-17T04:10:49;9.53;;;5.60;;
5225;SDS011;2632;51.666;7.146;2023-08-17T04:13:15;7.57;;;5.43;;
5225;SDS011;2632;51.666;7.146;2023-08-17T04:15:42;9.40;;;4.97;;
5225;SDS011;2632;51.666;7.146;2023-08-17T04:18:09;9.37;;;4.73;;
5225;SDS011;2632;51.666;7.146;2023-08-17T04:20:35;12.77;;;5.93;;
5225;SDS011;2632;51.666;7.146;2023-08-17T04:23:03;6.30;;;4.50;;
5225;SDS011;2632;51.666;7.146;2023-08-17T04:25:30;8.80;;;5.10;;
5225;SDS011;2632;51.666;7.146;2023-08-17T04:27:56;11.50;;;5.30;;
5225;SDS011;2632;51.666;7.146;2023-08-17T04:30:23;13.93;;;5.33;;
5225;SDS011;2632;51.666;7.146;2023-08-17T04:32:50;10.30;;;5.33;;
5225;SDS011;2632;51.666;7.146;2023-08-17T04:35:19;8.60;;;5.33;;
5225;SDS011;2632;51.666;7.146;2023-08-17T04:37:46;12.20;;;5.60;;
5225;SDS011;2632;51.666;7.146;2023-08-17T04:40:13;11.10;;;5.20;;
5225;SDS011;2632;51.666;7.146;2023-08-17T04:42:40;11.27;;;5.50;;
5225;SDS011;2632;51.666;7.146;2023-08-17T04:45:07;8.60;;;5.00;;
5225;SDS011;2632;51.666;7.146;2023-08-17T04:47:35;7.43;;;4.77;;
5225;SDS011;2632;51.666;7.146;2023-08-17T04:50:01;8.40;;;5.60;;
5225;SDS011;2632;51.666;7.146;2023-08-17T04:52:28;10.90;;;5.73;;
5225;SDS011;2632;51.666;7.146;2023-08-17T04:54:55;11.17;;;5.20;;
5225;SDS011;2632;51.666;7.146;2023-08-17T04:57:22;9.27;;;5.00;;
5225;SDS011;2632;51.666;7.146;2023-08-17T04:59:48;7.70;;;5.00;;
5225;SDS011;2632;51.666;7.146;2023-08-17T05:02:15;10.43;;;5.60;;
5225;SDS011;2632;51.666;7.146;2023-08-17T05:04:42;7.57;;;4.70;;
5225;SDS011;2632;51.666;7.146;2023-08-17T05:07:08;8.17;;;4.93;;
5225;SDS011;2632;51.666;7.146;2023-08-17T05:09:35;7.53;;;4.70;;
5225;SDS011;2632;51.666;7.146;2023-08-17T05:12:02;10.70;;;5.53;;
5225;SDS011;2632;51.666;7.146;2023-08-17T05:14:29;11.37;;;5.47;;
5225;SDS011;2632;51.666;7.146;2023-08-17T05:16:56;11.77;;;5.30;;
5225;SDS011;2632;51.666;7.146;2023-08-17T05:19:23;8.47;;;4.90;;
5225;SDS011;2632;51.666;7.146;2023-08-17T05:21:50;11.13;;;5.13;;
5225;SDS011;2632;51.666;7.146;2023-08-17T05:24:17;10.03;;;5.30;;
5225;SDS011;2632;51.666;7.146;2023-08-17T05:26:44;10.70;;;5.00;;
5225;SDS011;2632;51.666;7.146;2023-08-17T05:29:10;7.50;;;5.10;;
5225;SDS011;2632;51.666;7.146;2023-08-17T05:31:37;11.07;;;5.00;;
5225;SDS011;2632;51.666;7.146;2023-08-17T05:34:07;10.83;;;5.10;;
5225;SDS011;2632;51.666;7.146;2023-08-17T05:36:33;6.27;;;4.60;;
5225;SDS011;2632;51.666;7.146;2023-08-17T05:39:00;8.47;;;5.13;;
5225;SDS011;2632;51.666;7.146;2023-08-17T05:41:27;6.83;;;4.43;;
5225;SDS011;2632;51.666;7.146;2023-08-17T05:43:54;8.83;;;4.70;;
5225;SDS011;2632;51.666;7.146;2023-08-17T05:46:21;11.73;;;5.20;;
5225;SDS011;2632;51.666;7.146;2023-08-17T05:48:48;8.30;;;4.53;;
5225;SDS011;2632;51.666;7.146;2023-08-17T05:51:14;9.20;;;4.93;;
5225;SDS011;2632;51.666;7.146;2023-08-17T05:53:41;9.33;;;5.47;;
5225;SDS011;2632;51.666;7.146;2023-08-17T05:56:08;13.87;;;4.90;;
5225;SDS011;2632;51.666;7.146;2023-08-17T05:58:34;8.40;;;4.67;;
5225;SDS011;2632;51.666;7.146;2023-08-17T06:01:07;7.87;;;4.77;;
5225;SDS011;2632;51.666;7.146;2023-08-17T06:03:35;9.73;;;5.10;;
5225;SDS011;2632;51.666;7.146;2023-08-17T06:06:03;10.20;;;5.47;;
5225;SDS011;2632;51.666;7.146;2023-08-17T06:08:33;5.73;;;4.80;;
5225;SDS011;2632;51.666;7.146;2023-08-17T06:11:00;6.83;;;5.00;;
5225;SDS011;2632;51.666;7.146;2023-08-17T06:13:27;8.50;;;4.80;;
5225;SDS011;2632;51.666;7.146;2023-08-17T06:15:55;11.60;;;5.83;;
5225;SDS011;2632;51.666;7.146;2023-08-17T06:18:24;7.90;;;5.40;;
5225;SDS011;2632;51.666;7.146;2023-08-17T06:20:51;8.77;;;5.03;;
5225;SDS011;2632;51.666;7.146;2023-08-17T06:23:19;9.77;;;5.30;;
5225;SDS011;2632;51.666;7.146;2023-08-17T06:25:47;6.67;;;4.80;;
5225;SDS011;2632;51.666;7.146;2023-08-17T06:28:13;7.03;;;5.53;;
5225;SDS011;2632;51.666;7.146;2023-08-17T06:30:40;11.47;;;5.13;;
5225;SDS011;2632;51.666;7.146;2023-08-17T06:33:07;10.53;;;5.50;;
5225;SDS011;2632;51.666;7.146;2023-08-17T06:35:33;12.30;;;5.77;;
5225;SDS011;2632;51.666;7.146;2023-08-17T06:38:00;10.50;;;5.60;;
5225;SDS011;2632;51.666;7.146;2023-08-17T06:40:27;8.60;;;5.33;;
5225;SDS011;2632;51.666;7.146;2023-08-17T06:42:54;12.83;;;6.87;;
5225;SDS011;2632;51.666;7.146;2023-08-17T06:45:21;9.20;;;6.23;;
5225;SDS011;2632;51.666;7.146;2023-08-17T06:47:48;8.70;;;6.07;;
5225;SDS011;2632;51.666;7.146;2023-08-17T06:50:15;12.13;;;6.80;;
5225;SDS011;2632;51.666;7.146;2023-08-17T06:52:42;10.00;;;5.90;;
5225;SDS011;2632;51.666;7.146;2023-08-17T06:55:09;10.83;;;5.80;;
5225;SDS011;2632;51.666;7.146;2023-08-17T06:57:36;10.20;;;7.03;;
5225;SDS011;2632;51.666;7.146;2023-08-17T07:00:03;13.30;;;6.80;;
5225;SDS011;2632;51.666;7.146;2023-08-17T07:02:34;10.07;;;6.50;;
5225;SDS011;2632;51.666;7.146;2023-08-17T07:05:17;9.53;;;6.60;;
5225;SDS011;2632;51.666;7.146;2023-08-17T07:07:44;10.47;;;6.80;;
5225;SDS011;2632;51.666;7.146;2023-08-17T07:10:11;9.53;;;6.10;;
5225;SDS011;2632;51.666;7.146;2023-08-17T07:12:38;12.20;;;6.80;;
5225;SDS011;2632;51.666;7.146;2023-08-17T07:15:06;12.13;;;6.53;;
5225;SDS011;2632;51.666;7.146;2023-08-17T07:17:33;16.33;;;6.83;;
5225;SDS011;2632;51.666;7.146;2023-08-17T07:20:00;8.20;;;6.40;;
5225;SDS011;2632;51.666;7.146;2023-08-17T07:22:30;13.60;;;6.93;;
5225;SDS011;2632;51.666;7.146;2023-08-17T07:24:57;10.93;;;7.43;;
5225;SDS011;2632;51.666;7.146;2023-08-17T07:27:23;13.37;;;7.33;;
5225;SDS011;2632;51.666;7.146;2023-08-17T07:29:51;12.33;;;7.20;;
5225;SDS011;2632;51.666;7.146;2023-08-17T07:32:18;12.53;;;6.93;;
5225;SDS011;2632;51.666;7.146;2023-08-17T07:34:45;11.17;;;7.07;;
5225;SDS011;2632;51.666;7.146;2023-08-17T07:37:11;9.40;;;6.50;;
5225;SDS011;2632;51.666;7.146;2023-08-17T07:39:41;10.27;;;7.20;;
5225;SDS011;2632;51.666;7.146;2023-08-17T07:42:07;15.27;;;7.57;;
5225;SDS011;2632;51.666;7.146;2023-08-17T07:44:34;14.57;;;8.17;;
5225;SDS011;2632;51.666;7.146;2023-08-17T07:47:01;12.93;;;7.87;;
5225;SDS011;2632;51.666;7.146;2023-08-17T07:49:28;12.60;;;7.10;;
5225;SDS011;2632;51.666;7.146;2023-08-17T07:51:58;12.90;;;7.40;;
5225;SDS011;2632;51.666;7.146;2023-08-17T07:54:25;10.60;;;7.50;;
5225;SDS011;2632;51.666;7.146;2023-08-17T07:56:52;12.53;;;7.00;;
5225;SDS011;2632;51.666;7.146;2023-08-17T07:59:19;14.10;;;7.70;;
5225;SDS011;2632;51.666;7.146;2023-08-17T08:01:45;11.20;;;7.13;;
5225;SDS011;2632;51.666;7.146;2023-08-17T08:04:14;13.97;;;7.90;;
5225;SDS011;2632;51.666;7.146;2023-08-17T08:06:42;13.63;;;7.80;;
5225;SDS011;2632;51.666;7.146;2023-08-17T08:09:08;12.40;;;7.80;;
5225;SDS011;2632;51.666;7.146;2023-08-17T08:11:35;13.03;;;8.07;;
5225;SDS011;2632;51.666;7.146;2023-08-17T08:14:02;11.47;;;7.90;;
5225;SDS011;2632;51.666;7.146;2023-08-17T08:16:29;17.63;;;8.40;;
5225;SDS011;2632;51.666;7.146;2023-08-17T08:18:57;13.63;;;8.40;;
5225;SDS011;2632;51.666;7.146;2023-08-17T08:21:24;15.60;;;8.73;;
5225;SDS011;2632;51.666;7.146;2023-08-17T08:23:50;12.30;;;8.50;;
5225;SDS011;2632;51.666;7.146;2023-08-17T08:26:17;13.40;;;8.43;;
5225;SDS011;2632;51.666;7.146;2023-08-17T08:28:44;19.47;;;9.27;;
5225;SDS011;2632;51.666;7.146;2023-08-17T08:31:11;16.27;;;9.00;;
5225;SDS011;2632;51.666;7.146;2023-08-17T08:33:38;14.40;;;9.03;;
5225;SDS011;2632;51.666;7.146;2023-08-17T08:36:05;13.73;;;8.90;;
5225;SDS011;2632;51.666;7.146;2023-08-17T08:38:34;10.33;;;8.50;;
5225;SDS011;2632;51.666;7.146;2023-08-17T08:41:01;13.83;;;9.27;;
5225;SDS011;2632;51.666;7.146;2023-08-17T08:43:29;16.80;;;10.07;;
5225;SDS011;2632;51.666;7.146;2023-08-17T08:45:56;13.23;;;8.57;;
5225;SDS011;2632;51.666;7.146;2023-08-17T08:48:26;16.23;;;9.50;;
5225;SDS011;2632;51.666;7.146;2023-08-17T08:50:54;16.20;;;9.00;;
5225;SDS011;2632;51.666;7.146;2023-08-17T08:53:31;12.10;;;8.40;;
5225;SDS011;2632;51.666;7.146;2023-08-17T08:56:03;14.33;;;8.93;;
5225;SDS011;2632;51.666;7.146;2023-08-17T08:58:31;17.83;;;8.50;;
5225;SDS011;2632;51.666;7.146;2023-08-17T09:00:59;16.93;;;9.20;;
5225;SDS011;2632;51.666;7.146;2023-08-17T09:03:33;15.53;;;9.37;;
5225;SDS011;2632;51.666;7.146;2023-08-17T09:06:01;14.57;;;9.23;;
5225;SDS011;2632;51.666;7.146;2023-08-17T09:08:45;14.60;;;9.00;;
5225;SDS011;2632;51.666;7.146;2023-08-17T09:11:13;16.77;;;9.20;;
5225;SDS011;2632;51.666;7.146;2023-08-17T09:13:40;17.17;;;10.07;;
5225;SDS011;2632;51.666;7.146;2023-08-17T09:16:07;14.57;;;9.80;;
5225;SDS011;2632;51.666;7.146;2023-08-17T09:18:34;19.03;;;9.80;;
5225;SDS011;2632;51.666;7.146;2023-08-17T09:21:04;16.60;;;10.47;;
5225;SDS011;2632;51.666;7.146;2023-08-17T09:23:31;17.97;;;10.10;;
5225;SDS011;2632;51.666;7.146;2023-08-17T09:26:05;18.77;;;10.40;;
5225;SDS011;2632;51.666;7.146;2023-08-17T09:28:35;14.97;;;10.43;;
5225;SDS011;2632;51.666;7.146;2023-08-17T09:31:05;24.17;;;10.87;;
5225;SDS011;2632;51.666;7.146;2023-08-17T09:33:32;17.60;;;9.90;;
5225;SDS011;2632;51.666;7.146;2023-08-17T09:35:59;27.60;;;10.43;;
5225;SDS011;2632;51.666;7.146;2023-08-17T09:38:26;18.53;;;10.50;;
5225;SDS011;2632;51.666;7.146;2023-08-17T09:40:54;16.57;;;11.13;;
5225;SDS011;2632;51.666;7.146;2023-08-17T09:43:23;21.00;;;11.00;;
5225;SDS011;2632;51.666;7.146;2023-08-17T09:45:54;16.90;;;10.93;;
5225;SDS011;2632;51.666;7.146;2023-08-17T09:48:21;13.97;;;10.03;;
5225;SDS011;2632;51.666;7.146;2023-08-17T09:50:47;19.70;;;11.53;;
5225;SDS011;2632;51.666;7.146;2023-08-17T09:53:18;23.37;;;9.97;;
5225;SDS011;2632;51.666;7.146;2023-08-17T09:55:45;15.40;;;10.90;;
5225;SDS011;2632;51.666;7.146;2023-08-17T09:58:12;17.20;;;9.87;;
5225;SDS011;2632;51.666;7.146;2023-08-17T10:00:52;15.40;;;9.33;;
5225;SDS011;2632;51.666;7.146;2023-08-17T10:03:19;14.40;;;9.77;;
5225;SDS011;2632;51.666;7.146;2023-08-17T10:06:02;12.83;;;9.40;;
5225;SDS011;2632;51.666;7.146;2023-08-17T10:08:36;16.07;;;9.57;;
5225;SDS011;2632;51.666;7.146;2023-08-17T10:11:09;15.90;;;9.40;;
5225;SDS011;2632;51.666;7.146;2023-08-17T10:13:56;15.10;;;9.80;;
5225;SDS011;2632;51.666;7.146;2023-08-17T10:16:26;17.70;;;9.60;;
5225;SDS011;2632;51.666;7.146;2023-08-17T10:21:40;18.97;;;9.90;;
5225;SDS011;2632;51.666;7.146;2023-08-17T10:24:08;13.80;;;9.90;;
5225;SDS011;2632;51.666;7.146;2023-08-17T10:26:36;16.67;;;10.03;;
5225;SDS011;2632;51.666;7.146;2023-08-17T10:29:03;15.20;;;10.97;;
5225;SDS011;2632;51.666;7.146;2023-08-17T10:31:37;13.00;;;9.90;;
5225;SDS011;2632;51.666;7.146;2023-08-17T10:34:04;13.97;;;10.10;;
5225;SDS011;2632;51.666;7.146;2023-08-17T10:36:31;17.10;;;10.40;;
5225;SDS011;2632;51.666;7.146;2023-08-17T10:39:18;17.33;;;10.93;;
5225;SDS011;2632;51.666;7.146;2023-08-17T10:41:53;18.07;;;10.73;;
5225;SDS011;2632;51.666;7.146;2023-08-17T10:47:20;20.37;;;10.87;;
5225;SDS011;2632;51.666;7.146;2023-08-17T10:50:22;17.10;;;10.93;;
5225;SDS011;2632;51.666;7.146;2023-08-17T10:52:50;18.87;;;10.90;;
5225;SDS011;2632;51.666;7.146;2023-08-17T10:55:35;19.67;;;10.70;;
5225;SDS011;2632;51.666;7.146;2023-08-17T10:58:06;20.87;;;10.67;;
5225;SDS011;2632;51.666;7.146;2023-08-17T11:00:40;14.87;;;9.77;;
5225;SDS011;2632;51.666;7.146;2023-08-17T11:03:09;25.50;;;10.17;;
5225;SDS011;2632;51.666;7.146;2023-08-17T11:05:44;16.47;;;10.73;;
5225;SDS011;2632;51.666;7.146;2023-08-17T11:08:20;15.77;;;11.07;;
5225;SDS011;2632;51.666;7.146;2023-08-17T11:11:16;17.23;;;11.70;;
5225;SDS011;2632;51.666;7.146;2023-08-17T11:13:46;18.77;;;11.50;;
5225;SDS011;2632;51.666;7.146;2023-08-17T11:16:15;15.80;;;10.43;;
5225;SDS011;2632;51.666;7.146;2023-08-17T11:18:44;20.33;;;10.00;;
5225;SDS011;2632;51.666;7.146;2023-08-17T11:21:11;17.43;;;10.50;;
5225;SDS011;2632;51.666;7.146;2023-08-17T11:23:45;19.87;;;11.63;;
5225;SDS011;2632;51.666;7.146;2023-08-17T11:26:15;20.50;;;11.73;;
5225;SDS011;2632;51.666;7.146;2023-08-17T11:28:42;17.00;;;10.50;;
5225;SDS011;2632;51.666;7.146;2023-08-17T11:31:11;17.57;;;11.00;;
5225;SDS011;2632;51.666;7.146;2023-08-17T11:33:40;18.93;;;10.70;;
5225;SDS011;2632;51.666;7.146;2023-08-17T11:36:07;16.23;;;10.83;;
5225;SDS011;2632;51.666;7.146;2023-08-17T11:38:36;19.07;;;11.53;;
5225;SDS011;2632;51.666;7.146;2023-08-17T11:41:05;18.70;;;10.63;;
5225;SDS011;2632;51.666;7.146;2023-08-17T11:43:35;14.93;;;10.30;;
5225;SDS011;2632;51.666;7.146;2023-08-17T11:46:03;16.00;;;10.90;;
5225;SDS011;2632;51.666;7.146;2023-08-17T11:48:31;16.77;;;10.20;;
5225;SDS011;2632;51.666;7.146;2023-08-17T11:51:00;20.37;;;11.10;;
5225;SDS011;2632;51.666;7.146;2023-08-17T11:53:33;13.87;;;10.27;;
5225;SDS011;2632;51.666;7.146;2023-08-17T11:56:03;17.03;;;10.80;;
5225;SDS011;2632;51.666;7.146;2023-08-17T11:58:36;21.27;;;10.87;;
5225;SDS011;2632;51.666;7.146;2023-08-17T12:01:12;21.63;;;10.60;;
5225;SDS011;2632;51.666;7.146;2023-08-17T12:03:42;18.43;;;9.80;;
5225;SDS011;2632;51.666;7.146;2023-08-17T12:06:09;16.73;;;9.70;;
5225;SDS011;2632;51.666;7.146;2023-08-17T12:08:36;18.27;;;11.97;;
5225;SDS011;2632;51.666;7.146;2023-08-17T12:11:03;15.83;;;10.70;;
5225;SDS011;2632;51.666;7.146;2023-08-17T12:13:34;19.10;;;10.50;;
5225;SDS011;2632;51.666;7.146;2023-08-17T12:16:01;19.10;;;10.37;;
5225;SDS011;2632;51.666;7.146;2023-08-17T12:18:33;15.77;;;10.23;;
5225;SDS011;2632;51.666;7.146;2023-08-17T12:21:01;18.90;;;10.50;;
5225;SDS011;2632;51.666;7.146;2023-08-17T12:23:29;18.00;;;10.93;;
5225;SDS011;2632;51.666;7.146;2023-08-17T12:25:59;19.07;;;11.67;;
5225;SDS011;2632;51.666;7.146;2023-08-17T12:28:25;16.97;;;10.00;;
5225;SDS011;2632;51.666;7.146;2023-08-17T12:31:01;19.60;;;11.53;;
5225;SDS011;2632;51.666;7.146;2023-08-17T12:33:29;19.90;;;11.57;;
5225;SDS011;2632;51.666;7.146;2023-08-17T12:35:55;19.17;;;10.80;;
5225;SDS011;2632;51.666;7.146;2023-08-17T12:38:23;19.43;;;11.90;;
5225;SDS011;2632;51.666;7.146;2023-08-17T12:40:51;20.03;;;11.03;;
5225;SDS011;2632;51.666;7.146;2023-08-17T12:43:18;18.90;;;10.93;;
5225;SDS011;2632;51.666;7.146;2023-08-17T12:45:45;21.07;;;11.20;;
5225;SDS011;2632;51.666;7.146;2023-08-17T12:48:11;20.87;;;11.20;;
5225;SDS011;2632;51.666;7.146;2023-08-17T12:50:38;21.60;;;11.40;;
5225;SDS011;2632;51.666;7.146;2023-08-17T12:53:09;18.53;;;10.63;;
5225;SDS011;2632;51.666;7.146;2023-08-17T12:55:36;15.60;;;11.27;;
5225;SDS011;2632;51.666;7.146;2023-08-17T12:58:03;24.40;;;12.37;;
5225;SDS011;2632;51.666;7.146;2023-08-17T13:00:31;17.63;;;11.40;;
5225;SDS011;2632;51.666;7.146;2023-08-17T13:02:58;21.80;;;12.70;;
5225;SDS011;2632;51.666;7.146;2023-08-17T13:05:24;20.10;;;11.40;;
5225;SDS011;2632;51.666;7.146;2023-08-17T13:07:51;20.20;;;11.27;;
5225;SDS011;2632;51.666;7.146;2023-08-17T13:10:18;16.47;;;11.50;;
5225;SDS011;2632;51.666;7.146;2023-08-17T13:12:44;17.93;;;11.63;;
5225;SDS011;2632;51.666;7.146;2023-08-17T13:15:13;17.57;;;10.80;;
5225;SDS011;2632;51.666;7.146;2023-08-17T13:17:40;22.20;;;11.50;;
5225;SDS011;2632;51.666;7.146;2023-08-17T13:20:07;20.90;;;11.57;;
5225;SDS011;2632;51.666;7.146;2023-08-17T13:22:35;17.10;;;11.57;;
5225;SDS011;2632;51.666;7.146;2023-08-17T13:25:03;20.37;;;11.17;;
5225;SDS011;2632;51.666;7.146;2023-08-17T13:27:30;15.53;;;9.87;;
5225;SDS011;2632;51.666;7.146;2023-08-17T13:29:57;16.87;;;10.07;;
5225;SDS011;2632;51.666;7.146;2023-08-17T13:32:27;15.87;;;9.60;;
5225;SDS011;2632;51.666;7.146;2023-08-17T13:34:54;15.37;;;9.17;;
5225;SDS011;2632;51.666;7.146;2023-08-17T13:37:21;15.87;;;9.80;;
5225;SDS011;2632;51.666;7.146;2023-08-17T13:39:48;16.23;;;10.50;;
5225;SDS011;2632;51.666;7.146;2023-08-17T13:42:15;16.50;;;10.10;;
5225;SDS011;2632;51.666;7.146;2023-08-17T13:44:42;15.60;;;9.03;;
5225;SDS011;2632;51.666;7.146;2023-08-17T13:47:09;14.93;;;9.53;;
5225;SDS011;2632;51.666;7.146;2023-08-17T13:49:35;14.87;;;9.67;;
5225;SDS011;2632;51.666;7.146;2023-08-17T13:52:02;20.93;;;10.93;;
5225;SDS011;2632;51.666;7.146;2023-08-17T13:54:29;17.43;;;10.20;;
5225;SDS011;2632;51.666;7.146;2023-08-17T13:56:56;18.93;;;10.87;;
5225;SDS011;2632;51.666;7.146;2023-08-17T13:59:23;17.47;;;10.57;;
5225;SDS011;2632;51.666;7.146;2023-08-17T14:01:49;15.70;;;10.40;;
5225;SDS011;2632;51.666;7.146;2023-08-17T14:04:16;18.63;;;11.20;;
5225;SDS011;2632;51.666;7.146;2023-08-17T14:06:44;19.87;;;10.90;;
5225;SDS011;2632;51.666;7.146;2023-08-17T14:09:10;24.13;;;9.90;;
5225;SDS011;2632;51.666;7.146;2023-08-17T14:11:37;18.37;;;10.70;;
5225;SDS011;2632;51.666;7.146;2023-08-17T14:14:04;15.90;;;11.27;;
5225;SDS011;2632;51.666;7.146;2023-08-17T14:16:33;16.83;;;10.93;;
5225;SDS011;2632;51.666;7.146;2023-08-17T14:19:00;17.43;;;10.37;;
5225;SDS011;2632;51.666;7.146;2023-08-17T14:21:26;15.73;;;10.70;;
5225;SDS011;2632;51.666;7.146;2023-08-17T14:23:53;17.30;;;11.43;;
5225;SDS011;2632;51.666;7.146;2023-08-17T14:26:20;17.73;;;10.17;;
5225;SDS011;2632;51.666;7.146;2023-08-17T14:28:46;18.80;;;10.40;;
5225;SDS011;2632;51.666;7.146;2023-08-17T14:31:13;19.10;;;10.53;;
5225;SDS011;2632;51.666;7.146;2023-08-17T14:33:43;19.50;;;10.10;;
5225;SDS011;2632;51.666;7.146;2023-08-17T14:36:13;14.37;;;9.37;;
5225;SDS011;2632;51.666;7.146;2023-08-17T14:38:45;14.00;;;9.50;;
5225;SDS011;2632;51.666;7.146;2023-08-17T14:41:12;17.30;;;9.23;;
5225;SDS011;2632;51.666;7.146;2023-08-17T14:43:39;16.70;;;10.27;;
5225;SDS011;2632;51.666;7.146;2023-08-17T14:46:05;15.63;;;9.90;;
5225;SDS011;2632;51.666;7.146;2023-08-17T14:48:32;13.60;;;9.60;;
5225;SDS011;2632;51.666;7.146;2023-08-17T14:50:59;15.90;;;9.50;;
5225;SDS011;2632;51.666;7.146;2023-08-17T14:53:26;12.67;;;8.93;;
5225;SDS011;2632;51.666;7.146;2023-08-17T14:55:54;13.80;;;9.27;;
5225;SDS011;2632;51.666;7.146;2023-08-17T14:58:21;11.50;;;8.53;;
5225;SDS011;2632;51.666;7.146;2023-08-17T15:00:48;13.07;;;8.20;;
5225;SDS011;2632;51.666;7.146;2023-08-17T15:03:14;12.57;;;8.40;;
5225;SDS011;2632;51.666;7.146;2023-08-17T15:05:41;13.37;;;8.23;;
5225;SDS011;2632;51.666;7.146;2023-08-17T15:08:08;16.40;;;9.23;;
5225;SDS011;2632;51.666;7.146;2023-08-17T15:10:34;16.70;;;9.43;;
5225;SDS011;2632;51.666;7.146;2023-08-17T15:13:01;14.03;;;9.30;;
5225;SDS011;2632;51.666;7.146;2023-08-17T15:15:28;15.47;;;10.30;;
5225;SDS011;2632;51.666;7.146;2023-08-17T15:17:54;17.47;;;10.00;;